Time;durP1;ratioP1;P1;durP2;ratioP2;P2;SDS_P1;SDS_P2;PMS_P1;PMS_P2;Temp;Humidity;BMP_temperature;BMP_pressure;BME280_temperature;BME280_humidity;BME280_pressure;Samples;Min_cycle;Max_cycle;Signal;HPM_P1;HPM_P2
2023/12/13 00:00:23;;;;;;;24.63;12.35;;;;;;;6.91;100.00;98611.25;10373871;28;20053;-79
2023/12/13 00:05:26;;;;;;;21.88;11.43;;;;;;;6.98;100.00;98598.97;10373705;28;20049;-79
2023/12/13 00:10:30;;;;;;;23.92;13.30;;;;;;;7.08;100.00;98606.13;10372592;28;20041;-79
2023/12/13 00:15:33;;;;;;;24.80;13.80;;;;;;;7.14;100.00;98602.88;10372610;28;20048;-80
2023/12/13 00:20:36;;;;;;;27.33;13.35;;;;;;;7.15;100.00;98594.72;10404800;28;20052;-79
2023/12/13 00:25:42;;;;;;;22.70;12.60;;;;;;;7.08;100.00;98590.13;10396740;28;20107;-79
2023/12/13 00:30:45;;;;;;;27.38;13.88;;;;;;;7.02;100.00;98576.38;10399410;28;20052;-79
2023/12/13 00:35:48;;;;;;;24.42;12.10;;;;;;;7.00;100.00;98586.34;10389386;28;21903;-79
2023/12/13 00:40:53;;;;;;;26.08;12.40;;;;;;;6.99;100.00;98578.47;10395308;28;20057;-78
2023/12/13 00:45:56;;;;;;;22.27;11.52;;;;;;;7.01;100.00;98585.34;10400071;28;20127;-78
2023/12/13 00:50:59;;;;;;;23.58;11.25;;;;;;;6.96;100.00;98584.94;10389273;28;20054;-79
2023/12/13 00:56:03;;;;;;;23.58;11.57;;;;;;;7.01;100.00;98600.53;10384741;28;20045;-79
2023/12/13 01:01:07;;;;;;;18.77;10.05;;;;;;;6.90;100.00;98622.88;10373530;28;20057;-79
2023/12/13 01:06:10;;;;;;;15.52;9.02;;;;;;;6.80;100.00;98619.34;10389360;28;21208;-79
2023/12/13 01:11:15;;;;;;;21.35;9.73;;;;;;;6.70;100.00;98627.38;10380672;28;20056;-79
2023/12/13 01:16:18;;;;;;;18.27;10.32;;;;;;;6.73;100.00;98624.44;10406932;28;20652;-80
2023/12/13 01:21:21;;;;;;;20.35;10.55;;;;;;;6.87;100.00;98628.50;10403774;28;20441;-78
2023/12/13 01:26:26;;;;;;;20.35;10.52;;;;;;;6.61;100.00;98626.41;10406239;28;20075;-78
2023/12/13 01:31:29;;;;;;;28.65;12.10;;;;;;;6.70;100.00;98635.41;10393313;28;20053;-77
2023/12/13 01:36:32;;;;;;;16.45;9.40;;;;;;;6.82;100.00;98634.25;10400181;28;20055;-77
2023/12/13 01:41:37;;;;;;;23.10;11.45;;;;;;;6.92;100.00;98628.09;10406785;28;20056;-77
2023/12/13 01:46:40;;;;;;;17.25;9.18;;;;;;;6.87;100.00;98616.97;10378386;28;20054;-78
2023/12/13 01:51:45;;;;;;;12.60;7.63;;;;;;;6.67;100.00;98625.00;10392492;28;20053;-76
2023/12/13 01:56:51;;;;;;;8.45;6.40;;;;;;;6.56;100.00;98622.50;10390279;28;20497;-77
2023/12/13 02:01:55;;;;;;;11.55;6.30;;;;;;;6.53;100.00;98617.44;10397464;28;21112;-77
2023/12/13 02:06:58;;;;;;;7.45;3.78;;;;;;;6.57;100.00;98629.50;10406076;28;20048;-78
2023/12/13 02:12:03;;;;;;;7.25;3.17;;;;;;;6.53;100.00;98623.63;10409536;28;20084;-78
2023/12/13 02:17:06;;;;;;;6.80;3.38;;;;;;;6.70;100.00;98616.72;10413692;28;20053;-78
2023/12/13 02:22:10;;;;;;;4.57;3.75;;;;;;;6.74;100.00;98609.25;10394838;28;20492;-78
2023/12/13 02:27:14;;;;;;;8.27;4.18;;;;;;;6.79;100.00;98618.50;10377074;28;20042;-78
2023/12/13 02:32:16;;;;;;;6.65;3.70;;;;;;;6.83;100.00;98624.44;10386533;28;20058;-79
2023/12/13 02:37:21;;;;;;;8.85;3.60;;;;;;;6.76;100.00;98612.63;10402512;28;20053;-78
2023/12/13 02:42:24;;;;;;;5.35;2.83;;;;;;;6.79;100.00;98607.84;10402793;28;20053;-80
2023/12/13 02:47:27;;;;;;;7.40;3.22;;;;;;;6.80;100.00;98611.34;10395335;28;20760;-78
2023/12/13 02:52:32;;;;;;;6.47;4.53;;;;;;;6.78;100.00;98608.84;10397116;28;20046;-79
2023/12/13 02:57:35;;;;;;;8.20;4.70;;;;;;;6.76;100.00;98605.47;10393507;28;20107;-79
2023/12/13 03:02:39;;;;;;;5.78;4.72;;;;;;;6.70;100.00;98608.72;10397832;28;20080;-79
2023/12/13 03:07:44;;;;;;;8.18;5.18;;;;;;;6.80;100.00;98604.22;10399427;28;20049;-79
2023/12/13 03:12:47;;;;;;;8.27;5.00;;;;;;;6.83;100.00;98601.25;10377974;28;20147;-78
2023/12/13 03:17:50;;;;;;;10.82;6.00;;;;;;;6.81;100.00;98599.72;10414097;28;20049;-80
2023/12/13 03:22:54;;;;;;;13.32;7.03;;;;;;;6.79;100.00;98589.16;10397871;28;20174;-79
2023/12/13 03:27:57;;;;;;;11.20;7.45;;;;;;;6.77;100.00;98596.47;10389380;28;20148;-79
2023/12/13 03:33:00;;;;;;;15.88;8.80;;;;;;;6.84;100.00;98596.75;10382197;28;20049;-78
2023/12/13 03:38:05;;;;;;;14.43;8.95;;;;;;;6.81;100.00;98591.69;10407668;28;20736;-79
2023/12/13 03:43:08;;;;;;;17.33;10.38;;;;;;;6.80;100.00;98596.19;10407368;28;20056;-79
2023/12/13 03:48:11;;;;;;;13.95;9.10;;;;;;;6.84;100.00;98600.25;10407454;28;20048;-78
2023/12/13 03:53:16;;;;;;;20.08;9.77;;;;;;;6.93;100.00;98595.06;10391529;28;20515;-78
2023/12/13 03:58:19;;;;;;;18.10;10.55;;;;;;;6.97;100.00;98593.81;10400948;28;20045;-79
2023/12/13 04:03:22;;;;;;;19.20;11.65;;;;;;;6.97;100.00;98588.47;10393793;28;20073;-78
2023/12/13 04:08:26;;;;;;;21.88;10.73;;;;;;;6.88;100.00;98591.97;10409459;28;20056;-79
2023/12/13 04:13:29;;;;;;;16.85;10.65;;;;;;;7.01;100.00;98592.50;10386131;28;20041;-78
2023/12/13 04:18:32;;;;;;;16.98;11.15;;;;;;;7.04;100.00;98586.88;10387751;28;20041;-78
2023/12/13 04:23:37;;;;;;;24.35;13.10;;;;;;;6.97;100.00;98585.81;10396417;28;20091;-78
2023/12/13 04:28:40;;;;;;;23.60;12.70;;;;;;;6.89;100.00;98583.84;10369966;28;20559;-78
2023/12/13 04:33:43;;;;;;;20.98;12.70;;;;;;;6.91;100.00;98581.88;10399372;28;20036;-78
2023/12/13 04:38:47;;;;;;;18.05;10.05;;;;;;;6.78;100.00;98583.97;10386627;28;20199;-78
2023/12/13 04:43:50;;;;;;;19.35;11.75;;;;;;;6.85;100.00;98585.06;10389846;28;20539;-79
2023/12/13 04:48:53;;;;;;;19.25;11.20;;;;;;;6.91;100.00;98584.56;10406129;28;20049;-78
2023/12/13 04:53:58;;;;;;;21.48;11.35;;;;;;;6.93;100.00;98589.72;10399762;28;20056;-79
2023/12/13 04:59:01;;;;;;;22.15;11.55;;;;;;;6.90;100.00;98584.69;10401574;28;20057;-79
2023/12/13 05:04:05;;;;;;;14.85;11.02;;;;;;;7.00;100.00;98585.50;10398591;28;20111;-78
2023/12/13 05:09:09;;;;;;;23.25;13.57;;;;;;;7.00;100.00;98575.66;10387790;28;20049;-78
2023/12/13 05:14:12;;;;;;;21.80;13.73;;;;;;;6.95;100.00;98580.59;10380864;28;21066;-78
2023/12/13 05:19:15;;;;;;;22.15;14.20;;;;;;;6.98;100.00;98574.97;10372431;28;20053;-79
2023/12/13 05:24:20;;;;;;;22.08;13.65;;;;;;;6.96;100.00;98576.91;10390053;28;20060;-78
2023/12/13 05:29:23;;;;;;;23.05;13.20;;;;;;;6.91;100.00;98578.34;10388145;28;20539;-79
2023/12/13 05:34:27;;;;;;;25.60;14.93;;;;;;;6.93;100.00;98577.22;10393485;28;20697;-78
2023/12/13 05:39:32;;;;;;;23.42;14.80;;;;;;;6.94;100.00;98578.91;10410039;28;20045;-78
2023/12/13 05:44:35;;;;;;;25.23;14.57;;;;;;;6.98;100.00;98571.47;10395299;28;20049;-78
2023/12/13 05:49:39;;;;;;;24.77;13.90;;;;;;;6.94;100.00;98570.03;10384747;28;21597;-79
2023/12/13 05:54:43;;;;;;;27.92;14.85;;;;;;;6.95;100.00;98571.75;10370478;28;20057;-78
2023/12/13 05:59:46;;;;;;;23.17;13.82;;;;;;;6.98;100.00;98574.13;10382479;28;20063;-78
2023/12/13 06:04:49;;;;;;;22.23;14.45;;;;;;;6.94;100.00;98583.38;10394119;28;20053;-79
2023/12/13 06:09:54;;;;;;;27.90;14.57;;;;;;;6.93;100.00;98579.06;10397413;28;20045;-79
2023/12/13 06:14:58;;;;;;;22.23;14.23;;;;;;;7.01;100.00;98581.84;10403466;28;20049;-78
2023/12/13 06:20:01;;;;;;;21.08;13.43;;;;;;;7.01;100.00;98582.66;10404958;28;20049;-78
2023/12/13 06:25:07;;;;;;;24.73;12.73;;;;;;;7.02;100.00;98580.84;10396090;28;20041;-78
2023/12/13 06:30:11;;;;;;;21.05;12.52;;;;;;;7.02;100.00;98580.84;10398824;28;20049;-78
2023/12/13 06:35:14;;;;;;;18.20;12.05;;;;;;;6.97;100.00;98578.63;10390664;28;20104;-78
2023/12/13 06:40:19;;;;;;;24.25;13.32;;;;;;;6.97;100.00;98591.13;10397629;28;20052;-78
2023/12/13 06:45:22;;;;;;;19.05;12.65;;;;;;;6.98;100.00;98592.81;10397709;28;20151;-79
2023/12/13 06:50:25;;;;;;;19.83;12.18;;;;;;;6.92;100.00;98590.72;10387499;28;20694;-78
2023/12/13 06:55:29;;;;;;;15.88;11.07;;;;;;;6.76;100.00;98596.63;10402050;28;20041;-78
2023/12/13 07:00:32;;;;;;;18.08;11.65;;;;;;;6.62;100.00;98597.91;10411055;28;20064;-78
2023/12/13 07:05:35;;;;;;;18.20;11.25;;;;;;;6.51;100.00;98606.06;10409091;28;20099;-78
2023/12/13 07:10:40;;;;;;;17.33;11.23;;;;;;;6.58;100.00;98600.03;10393147;28;20053;-79
2023/12/13 07:15:43;;;;;;;19.58;11.57;;;;;;;6.62;100.00;98595.25;10374152;28;20729;-79
2023/12/13 07:20:47;;;;;;;21.92;11.73;;;;;;;6.60;100.00;98602.53;10399607;28;20053;-78
2023/12/13 07:25:51;;;;;;;19.17;11.93;;;;;;;6.68;100.00;98602.66;10392656;28;20053;-78
2023/12/13 07:30:55;;;;;;;23.20;13.27;;;;;;;6.71;100.00;98607.72;10398009;28;20049;-78
2023/12/13 07:36:12;;;;;;;25.80;12.88;;;;;;;6.72;100.00;98609.41;10398248;28;20038;-77
2023/12/13 07:41:17;;;;;;;22.10;11.68;;;;;;;6.74;100.00;98601.25;10409233;28;20140;-79
2023/12/13 07:46:21;;;;;;;14.52;8.75;;;;;;;6.69;100.00;98612.38;10402884;28;20072;-79
2023/12/13 07:51:24;;;;;;;13.73;6.95;;;;;;;6.63;100.00;98619.09;10383243;28;20053;-80
2023/12/13 07:56:29;;;;;;;8.70;5.13;;;;;;;6.59;100.00;98619.53;10396556;28;20060;-80
2023/12/13 08:01:35;;;;;;;5.47;3.40;;;;;;;6.52;100.00;98615.75;10377446;28;20064;-79
2023/12/13 08:06:38;;;;;;;4.43;3.25;;;;;;;6.58;100.00;98624.03;10387153;28;20516;-79
2023/12/13 08:11:43;;;;;;;4.53;2.90;;;;;;;6.58;100.00;98623.16;10420150;28;20053;-79
2023/12/13 08:16:47;;;;;;;6.65;3.90;;;;;;;6.74;100.00;98622.59;10403334;28;20416;-79
2023/12/13 08:21:51;;;;;;;8.55;4.32;;;;;;;6.82;100.00;98612.88;10407121;28;20516;-79
2023/12/13 08:26:56;;;;;;;9.18;6.20;;;;;;;6.91;100.00;98618.38;10417917;28;20048;-79
2023/12/13 08:31:59;;;;;;;8.20;5.82;;;;;;;6.99;100.00;98615.84;10412618;28;20052;-78
2023/12/13 08:37:02;;;;;;;11.38;6.57;;;;;;;6.96;100.00;98616.97;10400651;28;20053;-80
2023/12/13 08:42:06;;;;;;;14.13;6.93;;;;;;;6.98;100.00;98616.84;10402848;28;20042;-78
2023/12/13 08:47:09;;;;;;;9.73;7.30;;;;;;;7.04;100.00;98624.25;10401426;28;20041;-79
2023/12/13 08:52:12;;;;;;;11.05;7.90;;;;;;;7.12;100.00;98626.22;10427223;28;20140;-80
2023/12/13 08:57:16;;;;;;;13.00;7.82;;;;;;;7.22;100.00;98627.88;10413715;28;20041;-78
2023/12/13 09:02:19;;;;;;;18.60;8.10;;;;;;;7.36;100.00;98628.38;10423865;28;20424;-78
2023/12/13 09:07:22;;;;;;;16.55;7.82;;;;;;;7.41;100.00;98631.47;10418355;28;20049;-79
2023/12/13 09:12:27;;;;;;;14.18;7.90;;;;;;;7.52;100.00;98636.63;10400788;28;20069;-79
2023/12/13 09:17:30;;;;;;;13.85;7.88;;;;;;;7.59;100.00;98647.53;10405600;28;20053;-79
2023/12/13 09:22:34;;;;;;;15.10;7.85;;;;;;;7.59;100.00;98652.88;10409833;28;20126;-79
2023/12/13 09:27:39;;;;;;;12.95;9.18;;;;;;;7.60;100.00;98650.06;10410215;28;20103;-79
2023/12/13 09:32:42;;;;;;;12.52;7.57;;;;;;;7.54;100.00;98658.66;10406788;28;20057;-78
2023/12/13 09:37:49;;;;;;;12.38;7.22;;;;;;;7.49;100.00;98671.63;10410942;28;20049;-78
2023/12/13 09:42:54;;;;;;;11.05;7.20;;;;;;;7.50;100.00;98667.97;10425304;28;20040;-80
2023/12/13 09:47:57;;;;;;;12.55;6.75;;;;;;;7.53;100.00;98669.50;10453544;28;20068;-80
2023/12/13 09:53:04;;;;;;;14.93;8.40;;;;;;;7.54;100.00;98666.69;10422532;28;20064;-80
2023/12/13 09:58:09;;;;;;;15.90;8.57;;;;;;;7.55;100.00;98659.53;10425117;28;20699;-80
2023/12/13 10:03:13;;;;;;;13.45;7.10;;;;;;;7.47;100.00;98665.59;10413022;28;20559;-78
2023/12/13 10:08:16;;;;;;;12.82;7.03;;;;;;;7.40;100.00;98662.66;10414625;28;20049;-79
2023/12/13 10:13:20;;;;;;;13.15;6.82;;;;;;;7.44;100.00;98668.56;10415444;28;20056;-79
2023/12/13 10:18:23;;;;;;;14.25;7.75;;;;;;;7.59;100.00;98667.06;10389830;28;20049;-80
2023/12/13 10:23:27;;;;;;;11.90;7.05;;;;;;;7.69;100.00;98670.56;10410317;28;20043;-80
2023/12/13 10:28:33;;;;;;;8.40;5.80;;;;;;;7.68;100.00;98665.38;10410844;28;20048;-80
2023/12/13 10:33:36;;;;;;;13.13;6.50;;;;;;;7.69;100.00;98675.91;10395980;28;20053;-79
2023/12/13 10:38:40;;;;;;;12.88;7.00;;;;;;;7.61;100.00;98675.78;10390763;28;20084;-79
2023/12/13 10:43:46;;;;;;;10.70;6.90;;;;;;;7.56;100.00;98682.56;10401202;28;20056;-80
2023/12/13 10:48:49;;;;;;;13.43;7.00;;;;;;;7.53;100.00;98682.88;10401214;28;20077;-80
2023/12/13 10:53:53;;;;;;;14.88;6.95;;;;;;;7.65;100.00;98676.34;10429371;28;20073;-83
2023/12/13 10:58:57;;;;;;;14.18;7.90;;;;;;;7.70;100.00;98677.56;10423582;28;20634;-81
2023/12/13 11:04:06;;;;;;;18.08;8.07;;;;;;;7.55;100.00;98687.06;10413197;28;20045;-81
2023/12/13 11:09:13;;;;;;;21.35;7.55;;;;;;;7.84;100.00;98681.59;10427025;28;20053;-82
2023/12/13 11:14:18;;;;;;;16.10;7.30;;;;;;;7.88;100.00;98685.66;10429501;28;20049;-81
2023/12/13 11:19:22;;;;;;;14.93;7.40;;;;;;;7.90;100.00;98685.53;10426903;28;20066;-81
2023/12/13 11:24:28;;;;;;;14.05;7.47;;;;;;;8.04;100.00;98687.69;10405399;28;20199;-81
2023/12/13 11:29:34;;;;;;;9.05;7.05;;;;;;;8.14;100.00;98688.47;10414280;28;20048;-81
2023/12/13 11:34:42;;;;;;;13.88;7.68;;;;;;;8.14;100.00;98688.47;10420518;28;20059;-81
2023/12/13 11:39:46;;;;;;;15.60;7.45;;;;;;;8.28;100.00;98680.91;10418293;28;20041;-80
2023/12/13 11:44:51;;;;;;;14.57;7.97;;;;;;;8.24;100.00;98683.06;10415245;28;20597;-81
2023/12/13 11:49:54;;;;;;;14.88;7.35;;;;;;;8.31;100.00;98686.84;10412524;28;20621;-82
2023/12/13 11:55:00;;;;;;;11.73;7.60;;;;;;;8.29;100.00;98688.81;10416783;28;20095;-79
2023/12/13 12:00:05;;;;;;;12.93;7.53;;;;;;;8.33;100.00;98682.16;10419165;28;20440;-80
2023/12/13 12:05:15;;;;;;;19.30;7.18;;;;;;;8.19;100.00;98696.03;10405131;28;20041;-81
2023/12/13 12:10:19;;;;;;;17.75;8.48;;;;;;;8.07;100.00;98697.25;10399295;28;20046;-80
2023/12/13 12:15:24;;;;;;;16.20;8.43;;;;;;;8.00;100.00;98704.19;10392522;28;20165;-82
2023/12/13 12:20:27;;;;;;;15.02;9.00;;;;;;;7.97;100.00;98708.00;10401908;28;20048;-80
2023/12/13 12:25:30;;;;;;;18.60;8.60;;;;;;;7.85;100.00;98704.69;10404842;28;20056;-80
2023/12/13 12:30:35;;;;;;;15.05;8.40;;;;;;;7.95;100.00;98709.97;10406321;28;20045;-82
2023/12/13 12:35:38;;;;;;;19.00;8.88;;;;;;;8.00;100.00;98710.34;10416182;28;20057;-82
2023/12/13 12:40:42;;;;;;;17.70;8.55;;;;;;;7.99;100.00;98708.69;10403112;28;20086;-79
2023/12/13 12:45:47;;;;;;;21.20;7.75;;;;;;;7.59;100.00;98707.16;10398953;28;20045;-80
2023/12/13 12:50:50;;;;;;;16.77;9.10;;;;;;;7.51;100.00;98709.72;10397919;28;20517;-80
2023/12/13 12:55:55;;;;;;;22.70;11.00;;;;;;;7.62;100.00;98704.19;10409295;28;20052;-80
2023/12/13 13:00:59;;;;;;;22.60;9.65;;;;;;;7.95;100.00;98707.28;10423002;28;20045;-80
2023/12/13 13:06:04;;;;;;;26.25;11.20;;;;;;;7.85;100.00;98714.53;10401800;28;20049;-81
2023/12/13 13:11:07;;;;;;;18.73;9.60;;;;;;;7.84;100.00;98712.84;10413110;28;20144;-81
2023/12/13 13:16:14;;;;;;;24.17;10.90;;;;;;;7.98;100.00;98715.03;10413198;28;20057;-80
2023/12/13 13:21:17;;;;;;;19.88;9.70;;;;;;;7.86;100.00;98722.38;10405787;28;21209;-81
2023/12/13 13:26:20;;;;;;;20.48;9.30;;;;;;;8.03;100.00;98714.56;10395679;28;20428;-81
2023/12/13 13:31:24;;;;;;;22.85;10.50;;;;;;;8.13;100.00;98715.38;10397082;28;20038;-78
2023/12/13 13:36:28;;;;;;;29.65;11.80;;;;;;;8.28;100.00;98718.38;10380794;28;20784;-81
2023/12/13 13:41:31;;;;;;;21.45;10.55;;;;;;;8.26;100.00;98725.72;10394589;28;20790;-79
2023/12/13 13:46:36;;;;;;;18.90;10.02;;;;;;;8.19;100.00;98725.47;10398571;28;20048;-78
2023/12/13 13:51:39;;;;;;;14.13;8.98;;;;;;;8.17;100.00;98728.31;10428661;28;20700;-79
2023/12/13 13:56:42;;;;;;;17.02;8.88;;;;;;;8.12;100.00;98737.78;10390353;28;20069;-79
2023/12/13 14:01:47;;;;;;;13.50;7.75;;;;;;;7.81;100.00;98739.84;10412817;28;20055;-80
2023/12/13 14:06:51;;;;;;;12.95;6.47;;;;;;;7.69;100.00;98741.88;10426685;28;20717;-80
2023/12/13 14:11:54;;;;;;;12.02;7.15;;;;;;;7.77;100.00;98746.50;10426345;28;20053;-80
2023/12/13 14:17:02;;;;;;;13.80;8.30;;;;;;;7.85;100.00;98755.47;10402603;28;20064;-81
2023/12/13 14:22:06;;;;;;;16.63;9.27;;;;;;;7.78;100.00;98759.69;10403888;28;20040;-81
2023/12/13 14:27:09;;;;;;;15.05;9.02;;;;;;;7.77;100.00;98760.69;10405040;28;20049;-80
2023/12/13 14:32:13;;;;;;;17.52;9.68;;;;;;;7.85;100.00;98763.50;10404641;28;20060;-82
2023/12/13 14:37:16;;;;;;;19.23;10.95;;;;;;;7.89;100.00;98764.03;10403475;28;20059;-82
2023/12/13 14:42:19;;;;;;;16.77;10.23;;;;;;;7.94;100.00;98767.94;10407696;28;20645;-80
2023/12/13 14:47:24;;;;;;;19.35;11.05;;;;;;;7.90;100.00;98769.25;10403799;28;20048;-80
2023/12/13 14:52:27;;;;;;;19.73;10.73;;;;;;;7.87;100.00;98768.66;10407885;28;20131;-82
2023/12/13 14:57:30;;;;;;;17.13;11.23;;;;;;;7.88;100.00;98778.41;10393012;28;20152;-82
2023/12/13 15:02:34;;;;;;;17.42;11.40;;;;;;;7.87;100.00;98779.38;10416688;28;20053;-81
2023/12/13 15:07:37;;;;;;;17.85;11.13;;;;;;;7.80;100.00;98791.66;10392677;28;20057;-80
2023/12/13 15:12:41;;;;;;;18.42;11.02;;;;;;;7.66;100.00;98799.13;10400165;28;20064;-80
2023/12/13 15:17:46;;;;;;;21.70;12.18;;;;;;;7.64;100.00;98806.44;10388882;28;20063;-81
2023/12/13 15:22:49;;;;;;;28.98;15.85;;;;;;;7.68;100.00;98817.72;10394814;28;20063;-81
2023/12/13 15:27:52;;;;;;;28.83;13.68;;;;;;;7.62;100.00;98819.09;10398944;28;20052;-80
2023/12/13 15:32:56;;;;;;;27.25;14.40;;;;;;;7.62;100.00;98827.13;10384713;28;20255;-81
2023/12/13 15:37:59;;;;;;;22.27;14.65;;;;;;;7.64;100.00;98825.16;10401694;28;20044;-81
2023/12/13 15:43:02;;;;;;;21.98;13.50;;;;;;;7.64;100.00;98832.31;10396021;28;20486;-80
2023/12/13 15:48:07;;;;;;;17.92;12.30;;;;;;;7.65;100.00;98837.53;10410200;28;20053;-81
2023/12/13 15:53:10;;;;;;;26.95;13.32;;;;;;;7.62;100.00;98843.16;10376201;28;20057;-81
2023/12/13 15:58:13;;;;;;;25.40;13.82;;;;;;;7.59;100.00;98843.44;10384984;28;20072;-81
2023/12/13 16:03:18;;;;;;;22.90;13.77;;;;;;;7.60;100.00;98855.00;10375532;28;20056;-81
2023/12/13 16:08:21;;;;;;;23.25;13.98;;;;;;;7.59;100.00;98856.78;10391803;28;20067;-82
2023/12/13 16:13:24;;;;;;;23.98;13.55;;;;;;;7.61;100.00;98878.03;10406748;28;20139;-81
2023/12/13 16:18:29;;;;;;;25.45;13.68;;;;;;;7.61;100.00;98878.03;10423091;28;20049;-81
2023/12/13 16:23:32;;;;;;;25.08;14.48;;;;;;;7.59;100.00;98883.50;10424140;28;20108;-81
2023/12/13 16:28:35;;;;;;;25.88;14.43;;;;;;;7.57;100.00;98888.19;10457023;28;20049;-82
2023/12/13 16:33:40;;;;;;;27.58;15.68;;;;;;;7.58;100.00;98887.19;10410822;28;20132;-81
2023/12/13 16:38:43;;;;;;;23.55;13.98;;;;;;;7.55;100.00;98889.31;10395422;28;20118;-79
2023/12/13 16:43:46;;;;;;;25.65;15.65;;;;;;;7.53;100.00;98896.63;10399381;28;20060;-81
2023/12/13 16:48:51;;;;;;;22.13;15.63;;;;;;;7.54;100.00;98898.28;10390302;28;20052;-80
2023/12/13 16:53:54;;;;;;;25.05;15.75;;;;;;;7.53;100.00;98909.97;10426907;28;20114;-80
2023/12/13 16:58:57;;;;;;;24.83;15.60;;;;;;;7.54;100.00;98915.16;10404213;28;20048;-80
2023/12/13 17:04:02;;;;;;;26.38;15.02;;;;;;;7.54;100.00;98922.34;10408593;28;20115;-80
2023/12/13 17:09:12;;;;;;;22.85;15.32;;;;;;;7.50;100.00;98924.47;10405264;28;20047;-79
2023/12/13 17:14:15;;;;;;;27.48;17.30;;;;;;;7.51;100.00;98942.16;10412573;28;20052;-80
2023/12/13 17:19:20;;;;;;;25.65;17.77;;;;;;;7.53;100.00;98940.19;10403573;28;20057;-80
2023/12/13 17:24:23;;;;;;;26.60;17.98;;;;;;;7.52;100.00;98949.22;10407656;28;20048;-82
2023/12/13 17:29:26;;;;;;;37.45;19.85;;;;;;;7.50;100.00;98960.03;10410825;28;20049;-81
2023/12/13 17:34:41;;;;;;;28.13;18.40;;;;;;;7.48;100.00;98966.50;10401219;28;20064;-79
2023/12/13 17:39:44;;;;;;;29.63;18.38;;;;;;;7.50;100.00;98975.22;10412283;28;20766;-80
2023/12/13 17:44:47;;;;;;;26.63;17.15;;;;;;;7.50;100.00;98973.38;10405499;28;20079;-81
2023/12/13 17:49:51;;;;;;;30.50;17.42;;;;;;;7.49;100.00;98978.88;10408651;28;20041;-81
2023/12/13 17:54:54;;;;;;;58.28;19.73;;;;;;;7.40;100.00;98979.69;10421172;28;20072;-80
2023/12/13 17:59:57;;;;;;;46.33;16.92;;;;;;;7.04;100.00;98992.69;10419720;28;20051;-79
2023/12/13 18:05:02;;;;;;;26.10;16.10;;;;;;;6.90;100.00;99009.06;10403038;28;20048;-80
2023/12/13 18:10:06;;;;;;;31.08;17.45;;;;;;;7.04;100.00;99014.03;10424936;28;20041;-79
2023/12/13 18:15:12;;;;;;;34.03;17.27;;;;;;;7.19;100.00;99019.88;10414110;28;20072;-80
2023/12/13 18:20:17;;;;;;;36.15;19.67;;;;;;;7.22;100.00;99025.78;10406744;28;20178;-79
2023/12/13 18:25:20;;;;;;;29.05;17.00;;;;;;;7.27;100.00;99028.91;10416211;28;20045;-80
2023/12/13 18:30:23;;;;;;;58.92;25.58;;;;;;;7.26;100.00;99035.19;10409896;28;20585;-79
2023/12/13 18:35:27;;;;;;;61.40;28.33;;;;;;;7.24;100.00;99049.66;10390990;28;20060;-81
2023/12/13 18:40:31;;;;;;;75.68;27.45;;;;;;;7.19;100.00;99060.78;10403237;28;20045;-80
2023/12/13 18:45:34;;;;;;;35.17;18.98;;;;;;;7.13;100.00;99072.00;10413723;28;20460;-81
2023/12/13 18:50:39;;;;;;;36.55;18.48;;;;;;;7.07;100.00;99072.50;10407451;28;20654;-82
2023/12/13 18:55:42;;;;;;;28.55;16.73;;;;;;;7.00;100.00;99090.91;10397062;28;20053;-81
2023/12/13 19:00:45;;;;;;;24.10;14.20;;;;;;;6.96;100.00;99099.31;10416417;28;20049;-81
2023/12/13 19:05:50;;;;;;;24.35;14.38;;;;;;;6.94;100.00;99109.25;10421048;28;21571;-80
2023/12/13 19:10:53;;;;;;;18.08;12.30;;;;;;;6.89;100.00;99115.00;10413681;28;21183;-80
2023/12/13 19:15:56;;;;;;;19.40;10.85;;;;;;;6.81;100.00;99128.97;10411339;28;20190;-79
2023/12/13 19:21:00;;;;;;;14.77;9.80;;;;;;;6.77;100.00;99132.03;10410870;28;20076;-80
2023/12/13 19:26:04;;;;;;;10.75;8.10;;;;;;;6.76;100.00;99135.69;10414663;28;20049;-82
2023/12/13 19:31:08;;;;;;;9.43;7.13;;;;;;;6.68;100.00;99152.34;10412758;28;20052;-81
2023/12/13 19:36:12;;;;;;;9.52;5.78;;;;;;;6.60;100.00;99155.66;10416159;28;20057;-81
2023/12/13 19:41:15;;;;;;;9.55;5.38;;;;;;;6.56;100.00;99167.56;10406243;28;20048;-80
2023/12/13 19:46:18;;;;;;;4.82;3.70;;;;;;;6.53;100.00;99177.66;10400817;28;20044;-81
2023/12/13 19:51:23;;;;;;;5.75;4.82;;;;;;;6.49;100.00;99186.88;10413020;28;20045;-81
2023/12/13 20:03:13;;;;;;;6.75;4.80;;;;;;;6.31;100.00;99216.78;10401006;28;20093;-80
2023/12/13 20:08:17;;;;;;;4.88;4.10;;;;;;;6.21;100.00;99221.16;10405305;28;20042;-80
2023/12/13 20:13:20;;;;;;;6.13;4.30;;;;;;;6.12;100.00;99233.41;10396836;28;20041;-82
2023/12/13 20:18:23;;;;;;;11.18;5.65;;;;;;;6.10;100.00;99232.69;10400907;28;20048;-82
2023/12/13 20:23:28;;;;;;;10.23;6.25;;;;;;;5.98;100.00;99243.47;10395351;28;20049;-79
2023/12/13 20:28:32;;;;;;;10.85;7.57;;;;;;;5.90;100.00;99254.78;10422607;28;20053;-80
2023/12/13 20:33:35;;;;;;;11.07;7.60;;;;;;;5.92;100.00;99252.81;10412545;28;20057;-79
2023/12/13 20:38:40;;;;;;;12.45;8.48;;;;;;;5.87;100.00;99265.66;10428740;28;20487;-80
2023/12/13 20:43:43;;;;;;;18.48;9.25;;;;;;;5.85;100.00;99273.78;10406358;28;20179;-80
2023/12/13 20:48:46;;;;;;;13.43;8.25;;;;;;;5.73;100.00;99278.28;10406891;28;20078;-81
2023/12/13 20:53:51;;;;;;;12.30;8.07;;;;;;;5.76;100.00;99298.50;10401860;28;20041;-80
2023/12/13 20:58:54;;;;;;;12.23;8.18;;;;;;;5.75;100.00;99298.59;10421067;28;20045;-81
2023/12/13 21:03:57;;;;;;;12.68;7.03;;;;;;;5.67;100.00;99309.84;10414355;28;20056;-81
2023/12/13 21:09:01;;;;;;;9.82;7.07;;;;;;;5.64;100.00;99326.94;10418029;28;20427;-80
2023/12/13 21:14:05;;;;;;;9.35;7.03;;;;;;;5.63;100.00;99321.72;10417095;28;20045;-80
2023/12/13 21:19:09;;;;;;;14.40;7.00;;;;;;;5.59;100.00;99333.56;10409139;28;20106;-79
2023/12/13 21:24:14;;;;;;;11.73;7.45;;;;;;;5.57;100.00;99344.38;10411257;28;20100;-81
2023/12/13 21:29:20;;;;;;;14.25;7.15;;;;;;;5.61;100.00;99345.81;10408681;28;20478;-80
2023/12/13 21:34:23;;;;;;;14.32;8.75;;;;;;;5.41;100.00;99357.16;10418161;28;20767;-80
2023/12/13 21:39:27;;;;;;;20.20;10.50;;;;;;;5.52;100.00;99361.66;10437864;28;20049;-81
2023/12/13 21:44:30;;;;;;;18.85;11.63;;;;;;;5.50;100.00;99370.59;10442442;28;20045;-81
2023/12/13 21:49:33;;;;;;;21.80;11.02;;;;;;;5.43;100.00;99376.50;10437782;28;20048;-81
2023/12/13 21:54:38;;;;;;;19.52;11.25;;;;;;;5.42;100.00;99385.47;10432576;28;20512;-81
2023/12/13 21:59:41;;;;;;;20.83;11.65;;;;;;;5.42;100.00;99396.13;10425231;28;20103;-80
2023/12/13 22:04:45;;;;;;;24.15;12.10;;;;;;;5.31;100.00;99396.94;10411945;28;20050;-81
2023/12/13 22:09:49;;;;;;;29.00;13.93;;;;;;;5.36;100.00;99405.44;10378243;28;20049;-83
2023/12/13 22:14:53;;;;;;;24.38;12.48;;;;;;;5.30;100.00;99411.22;10417475;28;20465;-82
2023/12/13 22:19:57;;;;;;;30.58;13.77;;;;;;;5.24;100.00;99420.53;10425882;28;20045;-80
2023/12/13 22:25:02;;;;;;;30.95;12.35;;;;;;;5.25;100.00;99426.69;10419769;28;20049;-81
2023/12/13 22:30:07;;;;;;;22.80;12.38;;;;;;;5.19;100.00;99440.47;10422322;28;20052;-80
2023/12/13 22:35:10;;;;;;;29.25;13.88;;;;;;;5.18;100.00;99446.72;10414530;28;20041;-81
2023/12/13 22:40:16;;;;;;;24.48;12.13;;;;;;;5.15;100.00;99455.78;10421483;28;20056;-81
2023/12/13 22:45:20;;;;;;;25.45;12.90;;;;;;;5.17;100.00;99455.69;10419853;28;20080;-82
2023/12/13 22:50:24;;;;;;;28.58;13.25;;;;;;;5.17;100.00;99455.69;10436598;28;20053;-82
2023/12/13 22:55:28;;;;;;;24.15;12.05;;;;;;;5.21;100.00;99467.81;10403371;28;20781;-82
2023/12/13 23:00:31;;;;;;;25.77;12.95;;;;;;;5.22;100.00;99470.38;10397287;28;20060;-81
2023/12/13 23:05:35;;;;;;;26.50;11.65;;;;;;;5.18;100.00;99482.19;10419566;28;20183;-81
2023/12/13 23:10:40;;;;;;;25.20;12.02;;;;;;;5.15;100.00;99492.22;10402677;28;20064;-82
2023/12/13 23:15:43;;;;;;;24.48;11.43;;;;;;;5.19;100.00;99493.72;10402157;28;20059;-82